Time;durP1;ratioP1;P1;durP2;ratioP2;P2;SDS_P1;SDS_P2;PMS_P1;PMS_P2;Temp;Humidity;BMP_temperature;BMP_pressure;BME280_temperature;BME280_humidity;BME280_pressure;Samples;Min_cycle;Max_cycle;Signal;HPM_P1;HPM_P2
2023/10/28 00:01:34;;;;;;;8.75;3.83;;;;;;;9.49;100.00;99448.78;5069979;28;20024;-35
2023/10/28 00:04:02;;;;;;;6.78;3.20;;;;;;;9.56;100.00;99468.25;5069933;28;20020;-35
2023/10/28 00:06:27;;;;;;;9.88;3.80;;;;;;;9.60;100.00;99463.16;5070167;28;20031;-35
2023/10/28 00:08:53;;;;;;;8.70;3.50;;;;;;;9.60;100.00;99460.47;5061372;28;20013;-35
2023/10/28 00:11:19;;;;;;;7.10;2.95;;;;;;;9.61;100.00;99472.88;5056375;28;20032;-35
2023/10/28 00:13:45;;;;;;;9.90;3.85;;;;;;;9.55;100.00;99464.75;5056265;28;20079;-35
2023/10/28 00:16:11;;;;;;;8.40;3.80;;;;;;;9.60;100.00;99477.47;5056499;28;20021;-35
2023/10/28 00:18:37;;;;;;;8.65;3.45;;;;;;;9.63;100.00;99484.25;5056298;28;20075;-35
2023/10/28 00:21:02;;;;;;;10.93;3.20;;;;;;;9.58;100.00;99470.72;5056545;28;20058;-35
2023/10/28 00:23:31;;;;;;;9.88;3.20;;;;;;;9.63;100.00;99468.06;5055804;28;20025;-35
2023/10/28 00:26:01;;;;;;;10.45;3.28;;;;;;;9.62;100.00;99467.25;5056639;28;20361;-35
2023/10/28 00:28:27;;;;;;;8.38;3.65;;;;;;;9.63;100.00;99470.75;5056249;28;20017;-34
2023/10/28 00:30:52;;;;;;;12.70;3.93;;;;;;;9.64;100.00;99470.50;5056050;28;20079;-34
2023/10/28 00:33:17;;;;;;;9.20;3.70;;;;;;;9.67;100.00;99469.16;5055632;28;20658;-35
2023/10/28 00:35:44;;;;;;;12.97;3.30;;;;;;;9.66;100.00;99473.75;5055902;28;20051;-35
2023/10/28 00:38:09;;;;;;;11.05;3.22;;;;;;;9.67;100.00;99469.16;5055999;28;20302;-34
2023/10/28 00:40:35;;;;;;;8.77;3.45;;;;;;;9.66;100.00;99476.47;5056691;28;20449;-35
2023/10/28 00:43:01;;;;;;;9.82;3.35;;;;;;;9.66;100.00;99470.22;5055950;28;20048;-35
2023/10/28 00:45:31;;;;;;;9.55;2.85;;;;;;;9.67;100.00;99471.88;5055477;28;20107;-34
2023/10/28 00:47:57;;;;;;;8.93;3.30;;;;;;;9.65;100.00;99472.09;5056448;28;20025;-34
2023/10/28 00:50:23;;;;;;;9.07;3.13;;;;;;;9.66;100.00;99476.47;5055617;28;20060;-35
2023/10/28 00:52:53;;;;;;;6.43;2.88;;;;;;;9.66;100.00;99475.63;5055501;28;20032;-35
2023/10/28 00:55:20;;;;;;;10.88;2.88;;;;;;;9.68;100.00;99479.69;5055516;28;20032;-35
2023/10/28 00:57:47;;;;;;;9.38;3.20;;;;;;;9.69;100.00;99477.81;5055350;28;20383;-35
2023/10/28 01:00:14;;;;;;;9.65;2.92;;;;;;;9.67;100.00;99467.28;5055367;28;20028;-35
2023/10/28 01:02:42;;;;;;;7.95;2.95;;;;;;;9.66;100.00;99476.47;5055381;28;20017;-34
2023/10/28 01:05:11;;;;;;;6.75;2.90;;;;;;;9.62;100.00;99461.03;5055132;28;20044;-34
2023/10/28 01:07:41;;;;;;;6.85;2.97;;;;;;;9.67;100.00;99472.69;5055217;28;20025;-35
2023/10/28 01:10:08;;;;;;;6.32;2.58;;;;;;;9.68;100.00;99466.22;5055147;28;20104;-35
2023/10/28 01:12:35;;;;;;;11.15;3.15;;;;;;;9.63;100.00;99476.97;5055452;28;20440;-35
2023/10/28 01:15:02;;;;;;;8.07;2.75;;;;;;;9.68;100.00;99479.69;5055416;28;20027;-35
2023/10/28 01:17:29;;;;;;;9.15;2.53;;;;;;;9.70;100.00;99472.16;5054690;28;20456;-35
2023/10/28 01:19:56;;;;;;;6.82;2.17;;;;;;;9.70;100.00;99474.03;5053845;28;20025;-35
2023/10/28 01:22:23;;;;;;;9.88;2.67;;;;;;;9.60;100.00;99453.19;5055257;28;20457;-35
2023/10/28 01:24:52;;;;;;;9.57;2.90;;;;;;;9.70;100.00;99472.16;5054656;28;20059;-35
2023/10/28 01:27:19;;;;;;;5.97;2.22;;;;;;;9.60;100.00;99446.97;5055779;28;20055;-35
2023/10/28 01:29:45;;;;;;;8.85;2.88;;;;;;;9.71;100.00;99460.31;5055103;28;20036;-35
2023/10/28 01:32:12;;;;;;;9.23;2.72;;;;;;;9.73;100.00;99460.84;5055110;28;20028;-35
2023/10/28 01:34:51;;;;;;;6.78;2.10;;;;;;;9.75;100.00;99468.69;5055034;28;20032;-35
2023/10/28 01:37:17;;;;;;;9.10;2.70;;;;;;;9.74;100.00;99464.34;5055464;28;20060;-35
2023/10/28 01:39:51;;;;;;;6.43;2.63;;;;;;;9.75;100.00;99469.47;5054392;28;20461;-35
2023/10/28 01:42:21;;;;;;;6.15;2.00;;;;;;;9.75;100.00;99463.28;5054920;28;20105;-36
2023/10/28 01:44:48;;;;;;;5.88;2.00;;;;;;;9.76;100.00;99473.84;5054593;28;20017;-35
2023/10/28 01:47:14;;;;;;;4.75;1.95;;;;;;;9.77;100.00;99467.34;5055150;28;20032;-35
2023/10/28 01:49:42;;;;;;;8.10;2.22;;;;;;;9.72;100.00;99453.00;5054522;28;20029;-42
2023/10/28 01:52:09;;;;;;;4.60;2.13;;;;;;;9.77;100.00;99470.06;5054387;28;20515;-35
2023/10/28 01:54:36;;;;;;;5.55;1.95;;;;;;;9.80;100.00;99474.09;5054969;28;20094;-35
2023/10/28 01:57:06;;;;;;;4.82;1.98;;;;;;;9.82;100.00;99471.97;5054514;28;20069;-35
2023/10/28 01:59:38;;;;;;;5.15;1.90;;;;;;;9.81;100.00;99470.34;5054017;28;20067;-35
2023/10/28 02:02:03;;;;;;;5.57;1.90;;;;;;;9.83;100.00;99465.50;5054597;28;20404;-35
2023/10/28 02:04:30;;;;;;;5.07;1.70;;;;;;;9.83;100.00;99465.50;5054217;28;20078;-39
2023/10/28 02:06:56;;;;;;;5.32;2.03;;;;;;;9.83;100.00;99464.69;5054715;28;20524;-35
2023/10/28 02:09:21;;;;;;;4.57;1.58;;;;;;;9.84;100.00;99464.41;5054160;28;20052;-35
2023/10/28 02:11:47;;;;;;;5.07;1.80;;;;;;;9.84;100.00;99464.41;5054168;28;20449;-35
2023/10/28 02:14:13;;;;;;;6.68;2.10;;;;;;;9.84;100.00;99467.13;5054546;28;20086;-35
2023/10/28 02:16:39;;;;;;;4.05;2.03;;;;;;;9.80;100.00;99453.31;5054207;28;20460;-35
2023/10/28 02:19:05;;;;;;;3.92;1.30;;;;;;;9.85;100.00;99467.94;5054446;28;20028;-35
2023/10/28 02:21:31;;;;;;;5.15;1.83;;;;;;;9.83;100.00;99462.00;5054300;28;20020;-35
2023/10/28 02:23:57;;;;;;;;;;;;;;;9.88;100.00;99456.63;5054367;28;20020;-35
2023/10/28 02:26:22;;;;;;;3.63;1.33;;;;;;;9.75;100.00;99447.88;5054345;28;20279;-35
2023/10/28 02:28:48;;;;;;;5.10;1.60;;;;;;;9.82;100.00;99461.19;5054124;28;20024;-35
2023/10/28 02:31:13;;;;;;;6.00;1.77;;;;;;;9.75;100.00;99453.28;5053967;28;20108;-35
2023/10/28 02:33:39;;;;;;;3.28;1.42;;;;;;;9.82;100.00;99460.38;5053466;28;20036;-35
2023/10/28 02:36:05;;;;;;;3.45;1.55;;;;;;;9.77;100.00;99463.84;5052684;28;20515;-44
2023/10/28 02:38:32;;;;;;;4.50;1.40;;;;;;;9.79;100.00;99464.38;5053876;28;20025;-35
2023/10/28 02:40:57;;;;;;;;;;;;;;;9.83;100.00;99460.09;5054401;28;20099;-35
2023/10/28 02:43:22;;;;;;;6.65;1.95;;;;;;;9.67;100.00;99440.28;5053626;28;20344;-35
2023/10/28 02:45:48;;;;;;;4.47;1.53;;;;;;;9.77;100.00;99463.84;5053677;28;20082;-35
2023/10/28 02:48:14;;;;;;;2.95;1.35;;;;;;;9.78;100.00;99462.78;5053563;28;20724;-35
2023/10/28 02:50:39;;;;;;;3.17;1.30;;;;;;;9.77;100.00;99466.53;5054102;28;20024;-35
2023/10/28 02:53:04;;;;;;;5.03;1.63;;;;;;;9.71;100.00;99460.31;5053526;28;20032;-34
2023/10/28 02:55:30;;;;;;;3.33;1.27;;;;;;;9.78;100.00;99468.16;5053802;28;20078;-35
2023/10/28 02:57:55;;;;;;;2.42;1.10;;;;;;;9.72;100.00;99461.13;5053432;28;20099;-35
2023/10/28 03:00:22;;;;;;;4.73;1.30;;;;;;;9.79;100.00;99472.50;5053822;28;20025;-35
2023/10/28 03:02:48;;;;;;;3.53;1.38;;;;;;;9.77;100.00;99477.34;5053457;28;20325;-35
2023/10/28 03:05:14;;;;;;;;;;;;;;;9.80;100.00;99469.53;5054175;28;20083;-35
2023/10/28 03:07:41;;;;;;;3.42;1.35;;;;;;;9.57;100.00;99447.50;5053334;28;19905;-35
2023/10/28 03:10:06;;;;;;;3.33;1.20;;;;;;;9.73;100.00;99482.44;5053383;28;20524;-35
2023/10/28 03:12:32;;;;;;;6.68;1.50;;;;;;;9.72;100.00;99477.31;5054144;28;20104;-35
2023/10/28 03:14:57;;;;;;;3.40;1.42;;;;;;;9.72;100.00;99478.13;5054222;28;20108;-34
2023/10/28 03:17:24;;;;;;;3.55;1.48;;;;;;;9.71;100.00;99473.81;5053738;28;20460;-34
2023/10/28 03:19:51;;;;;;;3.67;1.30;;;;;;;9.72;100.00;99474.59;5053577;28;20025;-35
2023/10/28 03:22:16;;;;;;;3.58;1.20;;;;;;;9.67;100.00;99466.47;5053565;28;20020;-35
2023/10/28 03:24:42;;;;;;;4.17;1.47;;;;;;;9.72;100.00;99474.59;5053317;28;20108;-35
2023/10/28 03:27:07;;;;;;;3.70;1.90;;;;;;;9.69;100.00;99467.81;5053298;28;20051;-35
2023/10/28 03:29:32;;;;;;;4.28;1.90;;;;;;;9.70;100.00;99469.44;5052986;28;20045;-34
2023/10/28 03:31:58;;;;;;;3.33;1.67;;;;;;;9.67;100.00;99469.16;5053489;28;20051;-35
2023/10/28 03:34:23;;;;;;;5.47;1.90;;;;;;;9.68;100.00;99476.19;5053355;28;20267;-35
2023/10/28 03:36:49;;;;;;;2.47;1.70;;;;;;;9.66;100.00;99476.47;5053345;28;20031;-35
2023/10/28 03:39:15;;;;;;;3.10;1.80;;;;;;;9.63;100.00;99476.16;5052863;28;20021;-34
2023/10/28 03:41:40;;;;;;;;;;;;;;;9.68;100.00;99484.28;5053241;28;20091;-35
2023/10/28 03:44:05;;;;;;;4.17;1.60;;;;;;;9.60;100.00;99487.44;5055230;28;20016;-35
2023/10/28 03:46:31;;;;;;;8.33;1.77;;;;;;;9.52;100.00;99476.06;5056858;28;20263;-35
2023/10/28 03:48:56;;;;;;;2.40;1.50;;;;;;;9.47;100.00;99473.34;5056798;28;20123;-35
2023/10/28 03:51:21;;;;;;;4.23;1.43;;;;;;;9.52;100.00;99476.06;5057308;28;20321;-35
2023/10/28 03:53:47;;;;;;;3.93;1.50;;;;;;;9.50;100.00;99472.81;5056681;28;20027;-35
2023/10/28 03:56:12;;;;;;;4.53;1.47;;;;;;;9.50;100.00;99461.19;5056957;28;20094;-35
2023/10/28 03:58:38;;;;;;;4.50;1.40;;;;;;;9.45;100.00;99466.56;5056925;28;20100;-35
2023/10/28 04:01:03;;;;;;;3.67;1.50;;;;;;;9.39;100.00;99464.88;5056636;28;20112;-35
2023/10/28 04:03:29;;;;;;;7.53;2.83;;;;;;;9.44;100.00;99467.63;5056391;28;20021;-35
2023/10/28 04:05:54;;;;;;;4.40;1.48;;;;;;;9.43;100.00;99474.09;5056601;28;20087;-35
2023/10/28 04:08:19;;;;;;;3.65;1.50;;;;;;;9.38;100.00;99466.78;5056408;28;20150;-35
2023/10/28 04:10:46;;;;;;;6.63;1.80;;;;;;;9.41;100.00;99474.34;5056136;28;20436;-35
2023/10/28 04:13:12;;;;;;;4.07;1.40;;;;;;;9.42;100.00;99475.16;5056319;28;20055;-35
2023/10/28 04:15:39;;;;;;;4.03;1.55;;;;;;;9.43;100.00;99472.22;5056352;28;20028;-35
2023/10/28 04:18:04;;;;;;;3.88;1.80;;;;;;;9.43;100.00;99466.81;5056420;28;20025;-35
2023/10/28 04:20:31;;;;;;;4.43;1.73;;;;;;;9.45;100.00;99467.38;5056218;28;20453;-35
2023/10/28 04:22:57;;;;;;;2.90;1.55;;;;;;;9.44;100.00;99468.44;5056192;28;20082;-35
2023/10/28 04:25:22;;;;;;;;;;;;;;;9.48;100.00;99469.56;5056580;28;20032;-35
2023/10/28 04:27:48;;;;;;;3.47;1.65;;;;;;;9.45;100.00;99464.66;5056076;28;19909;-35
2023/10/28 04:30:14;;;;;;;3.17;1.60;;;;;;;9.46;100.00;99460.06;5056031;28;20028;-35
2023/10/28 04:32:40;;;;;;;4.15;1.65;;;;;;;9.47;100.00;99454.44;5056471;28;20029;-35
2023/10/28 04:35:06;;;;;;;3.28;1.50;;;;;;;9.36;100.00;99438.41;5055578;28;20047;-35
2023/10/28 04:37:31;;;;;;;4.72;1.90;;;;;;;9.43;100.00;99450.63;5055397;28;20357;-35
2023/10/28 04:39:57;;;;;;;5.00;1.65;;;;;;;9.45;100.00;99448.47;5056223;28;20028;-35
2023/10/28 04:42:22;;;;;;;3.33;1.67;;;;;;;9.46;100.00;99454.69;5055833;28;20021;-35
2023/10/28 04:44:47;;;;;;;3.63;1.70;;;;;;;9.48;100.00;99453.38;5056403;28;20445;-35
2023/10/28 04:47:13;;;;;;;3.00;1.40;;;;;;;9.46;100.00;99455.50;5055798;28;20269;-35
2023/10/28 04:49:39;;;;;;;3.58;1.50;;;;;;;9.42;100.00;99442.78;5056225;28;20060;-35
2023/10/28 04:52:08;;;;;;;3.13;1.35;;;;;;;9.47;100.00;99450.94;5056255;28;20032;-35
2023/10/28 04:54:34;;;;;;;3.45;1.38;;;;;;;9.47;100.00;99449.06;5056013;28;20024;-35
2023/10/28 04:57:00;;;;;;;6.05;1.73;;;;;;;9.48;100.00;99442.56;5055664;28;20576;-35
2023/10/28 04:59:25;;;;;;;5.22;2.00;;;;;;;9.48;100.00;99442.56;5055538;28;20052;-35
2023/10/28 05:01:51;;;;;;;3.95;1.55;;;;;;;9.48;100.00;99437.19;5056045;28;20068;-35
2023/10/28 05:04:16;;;;;;;3.15;1.83;;;;;;;9.50;100.00;99443.13;5055937;28;20111;-36
2023/10/28 05:06:42;;;;;;;4.95;1.75;;;;;;;9.51;100.00;99439.34;5056024;28;20029;-35
2023/10/28 05:09:07;;;;;;;6.50;1.97;;;;;;;9.55;100.00;99443.16;5055902;28;20021;-35
2023/10/28 05:11:32;;;;;;;5.63;2.03;;;;;;;9.58;100.00;99430.22;5055901;28;20024;-35
2023/10/28 05:13:58;;;;;;;6.63;2.10;;;;;;;9.59;100.00;99431.84;5055517;28;20021;-35
2023/10/28 05:16:23;;;;;;;3.63;1.53;;;;;;;9.59;100.00;99435.38;5055445;28;20429;-35
2023/10/28 05:18:49;;;;;;;6.30;1.60;;;;;;;9.59;100.00;99448.06;5055167;28;20411;-35
2023/10/28 05:21:15;;;;;;;6.65;1.75;;;;;;;9.58;100.00;99438.34;5054851;28;20021;-35
2023/10/28 05:23:42;;;;;;;3.33;1.63;;;;;;;9.58;100.00;99432.94;5054735;28;20074;-35
2023/10/28 05:26:08;;;;;;;3.90;1.70;;;;;;;9.61;100.00;99443.19;5055025;28;20106;-34
2023/10/28 05:28:34;;;;;;;6.32;1.70;;;;;;;9.62;100.00;99436.75;5054614;28;20453;-35
2023/10/28 05:30:59;;;;;;;5.43;1.50;;;;;;;9.58;100.00;99430.22;5054973;28;20024;-35
2023/10/28 05:33:24;;;;;;;3.87;1.50;;;;;;;9.63;100.00;99428.38;5054838;28;20146;-35
2023/10/28 05:35:51;;;;;;;3.97;1.40;;;;;;;9.66;100.00;99437.84;5055088;28;20256;-35
2023/10/28 05:38:16;;;;;;;4.95;1.75;;;;;;;9.61;100.00;99422.41;5054407;28;20478;-35
2023/10/28 05:40:42;;;;;;;6.45;1.70;;;;;;;9.68;100.00;99441.09;5054498;28;20052;-35
2023/10/28 05:43:08;;;;;;;4.07;1.90;;;;;;;9.61;100.00;99430.50;5054590;28;20477;-35
2023/10/28 05:45:33;;;;;;;3.88;1.67;;;;;;;9.60;100.00;99428.06;5055200;28;20031;-34
2023/10/28 05:47:58;;;;;;;4.43;1.50;;;;;;;9.67;100.00;99445.69;5054786;28;20025;-35
2023/10/28 05:50:24;;;;;;;3.57;1.63;;;;;;;9.68;100.00;99450.00;5054643;28;20027;-35
2023/10/28 05:52:49;;;;;;;5.63;1.60;;;;;;;9.67;100.00;99451.09;5054720;28;20260;-35
2023/10/28 05:55:15;;;;;;;4.20;1.48;;;;;;;9.61;100.00;99440.50;5054784;28;20502;-35
2023/10/28 05:57:41;;;;;;;5.25;1.50;;;;;;;9.63;100.00;99446.47;5054398;28;20073;-35
2023/10/28 06:00:10;;;;;;;4.03;1.42;;;;;;;9.70;100.00;99449.75;5054272;28;20032;-35
2023/10/28 06:02:37;;;;;;;3.45;1.70;;;;;;;9.67;100.00;99459.19;5054018;28;20044;-35
2023/10/28 06:05:03;;;;;;;;;;;;;;;9.73;100.00;99462.72;5055017;28;20021;-36
2023/10/28 06:07:32;;;;;;;5.85;1.48;;;;;;;9.62;100.00;99448.34;5053396;28;19959;-35
2023/10/28 06:09:57;;;;;;;2.97;1.40;;;;;;;9.69;100.00;99467.81;5053940;28;20021;-35
2023/10/28 06:12:24;;;;;;;4.10;1.43;;;;;;;9.68;100.00;99465.41;5053911;28;20468;-35
2023/10/28 06:14:51;;;;;;;4.78;1.38;;;;;;;9.70;100.00;99460.53;5053784;28;20017;-35
2023/10/28 06:17:16;;;;;;;2.97;1.38;;;;;;;9.68;100.00;99462.69;5053652;28;20031;-35
2023/10/28 06:19:41;;;;;;;5.40;1.30;;;;;;;9.71;100.00;99462.16;5053667;28;20373;-35
2023/10/28 06:22:08;;;;;;;4.18;1.60;;;;;;;9.69;100.00;99464.31;5054027;28;20029;-35
2023/10/28 06:24:34;;;;;;;2.95;1.48;;;;;;;9.70;100.00;99463.25;5053648;28;20056;-35
2023/10/28 06:26:59;;;;;;;4.13;1.80;;;;;;;9.70;100.00;99469.44;5052904;28;20111;-35
2023/10/28 06:29:25;;;;;;;4.45;2.00;;;;;;;9.70;100.00;99468.63;5052382;28;20075;-35
2023/10/28 06:31:51;;;;;;;3.85;1.30;;;;;;;9.70;100.00;99465.94;5053259;28;20086;-35
2023/10/28 06:34:17;;;;;;;3.00;1.30;;;;;;;9.69;100.00;99467.00;5053779;28;20013;-35
2023/10/28 06:36:43;;;;;;;7.30;2.00;;;;;;;9.71;100.00;99475.66;5053474;28;20174;-35
2023/10/28 06:39:11;;;;;;;5.17;1.93;;;;;;;9.69;100.00;99465.13;5053455;28;20025;-35
2023/10/28 06:41:36;;;;;;;7.20;2.20;;;;;;;9.66;100.00;99460.25;5053479;28;20018;-34
2023/10/28 06:44:08;;;;;;;3.90;1.38;;;;;;;9.75;100.00;99476.78;5053384;28;20471;-35
2023/10/28 06:46:34;;;;;;;4.50;1.30;;;;;;;9.77;100.00;99469.25;5053038;28;20036;-35
2023/10/28 06:48:59;;;;;;;6.80;1.90;;;;;;;9.77;100.00;99471.94;5053316;28;20021;-35
2023/10/28 06:51:25;;;;;;;5.22;1.67;;;;;;;9.77;100.00;99467.34;5054114;28;20380;-35
2023/10/28 06:53:50;;;;;;;6.27;2.43;;;;;;;9.79;100.00;99467.09;5053051;28;20027;-35
2023/10/28 06:56:16;;;;;;;6.78;1.65;;;;;;;9.79;100.00;99467.09;5053277;28;20020;-35
2023/10/28 06:58:41;;;;;;;5.38;1.35;;;;;;;9.80;100.00;99469.53;5053362;28;20372;-35
2023/10/28 07:01:09;;;;;;;3.43;1.47;;;;;;;9.77;100.00;99458.44;5053225;28;20021;-35
2023/10/28 07:03:35;;;;;;;5.10;1.58;;;;;;;9.85;100.00;99474.16;5053426;28;20630;-35
2023/10/28 07:06:00;;;;;;;6.13;1.63;;;;;;;9.88;100.00;99475.53;5053456;28;20036;-35
2023/10/28 07:08:26;;;;;;;6.20;1.30;;;;;;;9.89;100.00;99471.75;5053476;28;20025;-35
2023/10/28 07:10:51;;;;;;;6.78;1.42;;;;;;;9.92;100.00;99474.75;5053990;28;20021;-35
2023/10/28 07:13:16;;;;;;;5.60;1.40;;;;;;;9.92;100.00;99473.94;5053183;28;20028;-35
2023/10/28 07:15:42;;;;;;;4.10;1.23;;;;;;;9.92;100.00;99469.34;5054181;28;20395;-36
2023/10/28 07:18:08;;;;;;;5.13;1.50;;;;;;;9.95;100.00;99473.41;5054425;28;20314;-35
2023/10/28 07:20:34;;;;;;;4.93;1.30;;;;;;;9.94;100.00;99475.28;5057916;28;20029;-35
2023/10/28 07:23:02;;;;;;;3.75;1.52;;;;;;;9.97;100.00;99474.78;5057293;28;20021;-35
2023/10/28 07:25:28;;;;;;;4.57;1.50;;;;;;;10.00;100.00;99476.13;5057019;28;20122;-35
2023/10/28 07:27:53;;;;;;;5.85;1.50;;;;;;;9.96;100.00;99467.75;5057824;28;20472;-35
2023/10/28 07:30:19;;;;;;;8.80;1.40;;;;;;;10.05;100.00;99484.25;5057739;28;20032;-35
2023/10/28 07:32:44;;;;;;;5.63;1.50;;;;;;;10.03;100.00;99481.03;5057202;28;20025;-36
2023/10/28 07:35:10;;;;;;;4.15;1.50;;;;;;;10.03;100.00;99476.44;5057693;28;20021;-35
2023/10/28 07:37:35;;;;;;;5.00;1.40;;;;;;;10.04;100.00;99483.47;5057238;28;20449;-35
2023/10/28 07:40:03;;;;;;;4.15;1.50;;;;;;;10.00;100.00;99468.88;5056357;28;20036;-35
2023/10/28 07:42:29;;;;;;;5.20;1.42;;;;;;;10.01;100.00;99473.19;5056897;28;20025;-35
2023/10/28 07:44:54;;;;;;;6.33;1.60;;;;;;;10.11;100.00;99491.34;5056706;28;20021;-35
2023/10/28 07:47:19;;;;;;;3.35;1.60;;;;;;;10.15;100.00;99499.72;5056883;28;20028;-35
2023/10/28 07:49:45;;;;;;;8.77;2.05;;;;;;;10.20;100.00;99495.19;5056910;28;20025;-35
2023/10/28 07:52:10;;;;;;;4.18;1.33;;;;;;;10.16;100.00;99485.97;5057045;28;20017;-36
2023/10/28 07:54:36;;;;;;;6.18;1.42;;;;;;;10.21;100.00;99488.72;5056336;28;20017;-35
2023/10/28 07:57:02;;;;;;;7.50;1.63;;;;;;;10.30;100.00;99505.28;5056929;28;20037;-35
2023/10/28 07:59:27;;;;;;;7.97;1.48;;;;;;;10.36;100.00;99508.81;5057281;28;20035;-35
2023/10/28 08:01:53;;;;;;;3.28;1.60;;;;;;;10.39;100.00;99503.69;5056612;28;20075;-35
2023/10/28 08:04:18;;;;;;;6.65;2.05;;;;;;;10.38;100.00;99501.25;5056978;28;20025;-35
2023/10/28 08:06:44;;;;;;;6.87;1.63;;;;;;;10.48;100.00;99520.22;5057339;28;20028;-35
2023/10/28 08:09:09;;;;;;;3.37;1.30;;;;;;;10.51;100.00;99523.22;5056899;28;20286;-35
2023/10/28 08:11:35;;;;;;;3.47;1.50;;;;;;;10.55;100.00;99523.50;5056363;28;20256;-35
2023/10/28 08:14:07;;;;;;;6.85;1.60;;;;;;;10.45;100.00;99505.34;5056800;28;20112;-35
2023/10/28 08:16:34;;;;;;;4.15;1.30;;;;;;;10.60;100.00;99520.84;5055243;28;20445;-35
2023/10/28 08:19:01;;;;;;;5.63;1.60;;;;;;;10.60;100.00;99518.13;5056418;28;20108;-35
2023/10/28 08:21:27;;;;;;;4.38;1.33;;;;;;;10.64;100.00;99511.13;5057052;28;20171;-35
2023/10/28 08:23:52;;;;;;;8.15;1.65;;;;;;;10.77;100.00;99528.72;5055803;28;20497;-35
2023/10/28 08:26:18;;;;;;;6.75;1.50;;;;;;;10.83;100.00;99527.66;5056706;28;20032;-35
2023/10/28 08:28:46;;;;;;;6.68;1.83;;;;;;;10.85;100.00;99525.53;5055312;28;20388;-35
2023/10/28 08:31:11;;;;;;;5.07;1.50;;;;;;;10.93;100.00;99530.44;5054717;28;20021;-35
2023/10/28 08:33:37;;;;;;;6.17;1.70;;;;;;;10.96;100.00;99532.59;5056782;28;20078;-35
2023/10/28 08:36:04;;;;;;;;;;;;;;;11.03;100.00;99537.78;5056681;28;20039;-35
2023/10/28 08:38:30;;;;;;;5.53;1.42;;;;;;;10.96;100.00;99527.19;5055700;28;19908;-35
2023/10/28 08:40:59;;;;;;;6.97;1.88;;;;;;;10.95;100.00;99530.97;5056105;28;20103;-35
2023/10/28 08:43:25;;;;;;;5.50;1.70;;;;;;;10.99;100.00;99533.97;5055993;28;20507;-36
2023/10/28 08:45:51;;;;;;;;;;;;;;;11.11;100.00;99539.13;5056367;28;20029;-36
2023/10/28 08:48:20;;;;;;;5.25;1.63;;;;;;;11.09;100.00;99542.13;5056233;28;19904;-40
2023/10/28 08:50:52;;;;;;;3.20;1.33;;;;;;;11.06;100.00;99538.03;5056197;28;20057;-35
2023/10/28 08:53:18;;;;;;;6.88;1.95;;;;;;;11.09;100.00;99542.94;5055627;28;20146;-35
2023/10/28 08:55:44;;;;;;;;;;;;;;;11.18;100.00;99545.13;5056812;28;20021;-35
2023/10/28 08:58:11;;;;;;;5.47;1.83;;;;;;;11.21;100.00;99547.28;5055781;28;19913;-35
2023/10/28 09:00:38;;;;;;;5.57;2.15;;;;;;;11.25;100.00;99553.78;5055788;28;20365;-35
2023/10/28 09:03:04;;;;;;;6.03;1.83;;;;;;;11.26;100.00;99542.69;5055372;28;20016;-35
2023/10/28 09:05:30;;;;;;;8.23;1.73;;;;;;;11.25;100.00;99545.66;5055192;28;20074;-36
2023/10/28 09:07:56;;;;;;;6.22;1.67;;;;;;;11.38;100.00;99553.28;5055343;28;20025;-35
2023/10/28 09:10:21;;;;;;;3.95;1.42;;;;;;;11.43;100.00;99556.00;5055273;28;20032;-35
2023/10/28 09:13:00;;;;;;;10.27;1.88;;;;;;;11.48;100.00;99552.50;5055038;28;20021;-36
2023/10/28 09:15:25;;;;;;;5.95;2.03;;;;;;;11.52;100.00;99567.13;5055509;28;20446;-35
2023/10/28 09:17:51;;;;;;;4.55;1.70;;;;;;;11.53;100.00;99574.97;5055342;28;20067;-35
2023/10/28 09:20:17;;;;;;;5.70;1.65;;;;;;;11.52;100.00;99561.72;5055610;28;20028;-35
2023/10/28 09:22:44;;;;;;;5.25;1.50;;;;;;;11.57;100.00;99562.53;5054714;28;20025;-35
2023/10/28 09:25:10;;;;;;;6.78;1.70;;;;;;;11.63;100.00;99567.94;5054933;28;20108;-35
2023/10/28 09:27:37;;;;;;;5.60;1.63;;;;;;;11.59;100.00;99546.81;5054564;28;20556;-35
2023/10/28 09:30:06;;;;;;;6.78;2.00;;;;;;;11.75;100.00;99565.78;5054608;28;20021;-35
2023/10/28 09:32:33;;;;;;;7.45;1.67;;;;;;;11.85;100.00;99566.63;5054862;28;20021;-35
2023/10/28 09:35:05;;;;;;;4.00;1.45;;;;;;;11.94;100.00;99566.09;5055102;28;20036;-35
2023/10/28 09:37:32;;;;;;;6.88;1.83;;;;;;;12.00;100.00;99563.09;5054927;28;20103;-35
2023/10/28 09:39:59;;;;;;;5.95;1.63;;;;;;;12.03;100.00;99561.75;5055052;28;20028;-35
2023/10/28 09:42:29;;;;;;;6.97;1.58;;;;;;;12.00;100.00;99554.16;5053767;28;20415;-35
2023/10/28 09:44:55;;;;;;;4.65;1.23;;;;;;;12.03;100.00;99557.16;5054824;28;20530;-35
2023/10/28 09:47:22;;;;;;;5.82;1.55;;;;;;;12.00;100.00;99560.41;5054234;28;20029;-35
2023/10/28 09:49:59;;;;;;;5.20;1.70;;;;;;;12.01;100.00;99567.47;5054818;28;20021;-35
2023/10/28 09:52:30;;;;;;;4.93;1.80;;;;;;;12.03;100.00;99568.00;5054980;28;20353;-35
2023/10/28 09:55:05;;;;;;;8.07;2.08;;;;;;;12.08;100.00;99565.28;5054444;28;20025;-35
2023/10/28 09:57:32;;;;;;;7.20;1.85;;;;;;;12.20;100.00;99570.44;5054580;28;20081;-35
2023/10/28 09:59:59;;;;;;;4.47;1.25;;;;;;;12.19;100.00;99549.81;5053993;28;20017;-35
2023/10/28 10:02:38;;;;;;;11.57;2.25;;;;;;;12.38;100.00;99556.28;5053868;28;20504;-35
2023/10/28 10:05:15;;;;;;;3.83;1.50;;;;;;;12.60;100.00;99561.41;5054274;28;20091;-35
2023/10/28 10:07:40;;;;;;;;;;;;;;;12.74;100.00;99561.66;5054295;28;20033;-35
2023/10/28 10:10:13;;;;;;;7.15;1.77;;;;;;;12.74;100.00;99558.13;5054658;28;19912;-35
2023/10/28 10:12:42;;;;;;;4.78;1.15;;;;;;;12.85;100.00;99565.13;5054390;28;20036;-35
2023/10/28 10:15:13;;;;;;;5.07;1.25;;;;;;;12.79;100.00;99568.97;5054672;28;20025;-35
2023/10/28 10:17:48;;;;;;;4.70;1.20;;;;;;;12.89;100.00;99566.22;5053933;28;20119;-35
2023/10/28 10:20:25;;;;;;;6.28;1.33;;;;;;;13.07;100.00;99576.41;5054746;28;20027;-35
2023/10/28 10:22:59;;;;;;;6.20;1.73;;;;;;;13.15;100.00;99567.72;5054407;28;20025;-35
2023/10/28 10:25:54;;;;;;;4.32;1.20;;;;;;;13.19;100.00;99573.41;5053786;28;20027;-36
2023/10/28 10:28:23;;;;;;;4.72;1.23;;;;;;;13.11;100.00;99568.53;5053183;28;20037;-35
2023/10/28 10:30:48;;;;;;;3.28;1.13;;;;;;;13.06;100.00;99566.66;5054561;28;20036;-35
2023/10/28 10:33:24;;;;;;;10.23;1.60;;;;;;;13.13;100.00;99578.03;5054255;28;20083;-35
2023/10/28 10:35:49;;;;;;;7.23;1.50;;;;;;;13.01;100.00;99566.69;5053760;28;20059;-35
2023/10/28 10:38:15;;;;;;;3.97;1.10;;;;;;;13.15;100.00;99567.72;5053275;28;20021;-35
2023/10/28 10:40:47;;;;;;;5.10;1.48;;;;;;;13.32;100.00;99588.28;5053775;28;20017;-36
2023/10/28 10:43:18;;;;;;;5.93;1.50;;;;;;;13.40;100.00;99576.84;5053659;28;20098;-36
2023/10/28 10:45:45;;;;;;;5.93;1.42;;;;;;;13.43;100.00;99568.16;5053917;28;20071;-35
2023/10/28 10:48:11;;;;;;;6.68;1.75;;;;;;;13.48;100.00;99576.25;5054074;28;20116;-35
2023/10/28 10:50:37;;;;;;;5.15;1.77;;;;;;;13.40;100.00;99577.66;5054205;28;20029;-36
2023/10/28 10:53:03;;;;;;;7.47;1.70;;;;;;;13.39;100.00;99577.94;5053050;28;20028;-35
2023/10/28 10:55:29;;;;;;;3.22;0.88;;;;;;;13.36;100.00;99573.06;5054063;28;20032;-35
2023/10/28 10:57:55;;;;;;;;;;;;;;;13.44;100.00;99569.75;5054087;28;20130;-35
2023/10/28 11:00:22;;;;;;;4.47;1.20;;;;;;;13.28;100.00;99563.63;5053692;28;19996;-35
2023/10/28 11:02:48;;;;;;;5.80;1.50;;;;;;;13.29;100.00;99572.56;5053464;28;20043;-36
2023/10/28 11:05:15;;;;;;;4.57;1.63;;;;;;;13.26;100.00;99570.41;5053726;28;20369;-36
2023/10/28 11:07:45;;;;;;;7.85;1.98;;;;;;;13.16;100.00;99568.53;5053610;28;20029;-36
2023/10/28 11:10:11;;;;;;;5.50;1.40;;;;;;;13.28;100.00;99570.94;5053838;28;20029;-36
2023/10/28 11:12:37;;;;;;;4.75;1.30;;;;;;;13.34;100.00;99564.41;5053776;28;20342;-35
2023/10/28 11:15:03;;;;;;;7.47;1.98;;;;;;;13.37;100.00;99569.25;5053131;28;20017;-35
2023/10/28 11:17:29;;;;;;;5.35;1.55;;;;;;;13.34;100.00;99565.19;5053225;28;20113;-35
2023/10/28 11:19:56;;;;;;;5.50;1.42;;;;;;;13.31;100.00;99564.94;5053326;28;20028;-35
2023/10/28 11:22:23;;;;;;;4.50;1.38;;;;;;;13.21;100.00;99554.13;5054011;28;20021;-35
2023/10/28 11:24:55;;;;;;;6.63;2.00;;;;;;;13.19;100.00;99565.25;5053134;28;20021;-35
2023/10/28 11:27:22;;;;;;;7.45;1.67;;;;;;;13.11;100.00;99553.06;5053454;28;20040;-34
2023/10/28 11:29:47;;;;;;;11.25;1.90;;;;;;;13.15;100.00;99565.00;5052807;28;20048;-35